Time;durP1;ratioP1;P1;durP2;ratioP2;P2;SDS_P1;SDS_P2;PMS_P1;PMS_P2;Temp;Humidity;BMP_temperature;BMP_pressure;BME280_temperature;BME280_humidity;BME280_pressure;Samples;Min_cycle;Max_cycle;Signal;HPM_P1;HPM_P2
2023/08/02 00:00:38;;;;;;;0.22;0.22;;;;;;;15.94;100.00;99192.81;4835784;29;20038;-92
2023/08/02 00:03:04;;;;;;;0.10;0.10;;;;;;;15.77;100.00;99159.88;4815862;29;20085;-93
2023/08/02 00:05:30;;;;;;;0.20;0.20;;;;;;;15.75;100.00;99154.03;4828098;29;20114;-93
2023/08/02 00:07:56;;;;;;;0.98;0.25;;;;;;;15.83;100.00;99154.34;4807538;29;20483;-93
2023/08/02 00:10:21;;;;;;;0.30;0.30;;;;;;;15.77;100.00;99157.06;4840325;29;20042;-92
2023/08/02 00:12:51;;;;;;;0.17;0.17;;;;;;;15.69;100.00;99135.66;4819399;29;20046;-93
2023/08/02 00:15:17;;;;;;;0.22;0.22;;;;;;;15.77;100.00;99153.53;4836388;29;20124;-92
2023/08/02 00:17:42;;;;;;;0.60;0.25;;;;;;;15.47;100.00;99119.41;4841512;29;20333;-93
2023/08/02 00:20:08;;;;;;;0.00;0.00;;;;;;;15.69;100.00;99144.06;4842945;29;20563;-93
2023/08/02 00:22:33;;;;;;;0.32;0.32;;;;;;;15.63;100.00;99134.81;4832965;29;20042;-93
2023/08/02 00:24:59;;;;;;;0.00;0.00;;;;;;;15.57;100.00;99131.97;4852237;29;20049;-92
2023/08/02 00:27:25;;;;;;;0.30;0.30;;;;;;;15.70;100.00;99163.09;4827909;29;20038;-93
2023/08/02 00:29:50;;;;;;;0.10;0.10;;;;;;;15.60;100.00;99147.78;4810868;29;20054;-92
2023/08/02 00:32:18;;;;;;;0.52;0.52;;;;;;;15.51;100.00;99133.94;4833114;29;20038;-93
2023/08/02 00:34:43;;;;;;;0.28;0.28;;;;;;;15.45;100.00;99124.69;4822715;29;20030;-94
2023/08/02 00:37:09;;;;;;;0.10;0.10;;;;;;;15.46;100.00;99134.63;4817365;29;20393;-92
2023/08/02 00:39:38;;;;;;;0.00;0.00;;;;;;;15.60;100.00;99153.38;4815205;29;20432;-93
2023/08/02 00:42:03;;;;;;;0.00;0.00;;;;;;;15.53;100.00;99153.03;4834899;29;20156;-93
2023/08/02 00:44:29;;;;;;;0.00;0.00;;;;;;;15.53;100.00;99167.75;4815335;29;20030;-93
2023/08/02 00:46:55;;;;;;;0.00;0.00;;;;;;;15.50;100.00;99160.34;4818259;29;20129;-93
2023/08/02 00:49:21;;;;;;;0.47;0.47;;;;;;;15.42;100.00;99153.63;4849909;29;20079;-93
2023/08/02 00:51:47;;;;;;;0.40;0.40;;;;;;;15.48;100.00;99174.03;4817555;29;20038;-92
2023/08/02 00:54:13;;;;;;;0.43;0.40;;;;;;;15.42;100.00;99164.81;4823073;29;20398;-92
2023/08/02 00:56:39;;;;;;;0.20;0.20;;;;;;;15.32;100.00;99146.69;4820143;29;20022;-92
2023/08/02 00:59:04;;;;;;;0.05;0.05;;;;;;;15.36;100.00;99158.41;4820352;29;20460;-92
2023/08/02 01:01:30;;;;;;;0.00;0.00;;;;;;;15.43;100.00;99166.34;4836921;29;20026;-92
2023/08/02 01:03:56;;;;;;;0.05;0.05;;;;;;;15.29;100.00;99156.00;4820018;29;20070;-92
2023/08/02 01:06:37;;;;;;;0.25;0.25;;;;;;;15.35;100.00;99182.00;4834444;29;20118;-92
2023/08/02 01:09:05;;;;;;;0.00;0.00;;;;;;;15.29;100.00;99184.72;4826840;29;20033;-91
2023/08/02 01:11:38;;;;;;;0.05;0.05;;;;;;;15.26;100.00;99185.72;4845026;29;20165;-92
2023/08/02 01:14:05;;;;;;;0.20;0.17;;;;;;;15.24;100.00;99179.88;4819260;29;20738;-93
2023/08/02 01:16:31;;;;;;;0.10;0.10;;;;;;;14.97;100.00;99145.97;4828857;29;20050;-92
2023/08/02 01:19:02;;;;;;;0.00;0.00;;;;;;;15.06;100.00;99166.16;4837952;29;20153;-92
2023/08/02 01:21:28;;;;;;;0.30;0.30;;;;;;;15.02;100.00;99165.59;4820549;29;20090;-93
2023/08/02 01:23:53;;;;;;;0.00;0.00;;;;;;;15.05;100.00;99183.41;4836369;29;20549;-92
2023/08/02 01:26:20;;;;;;;0.10;0.10;;;;;;;15.02;100.00;99176.00;4835039;29;20102;-92
2023/08/02 01:28:47;;;;;;;0.40;0.40;;;;;;;15.14;100.00;99191.66;4828916;29;20558;-93
2023/08/02 01:31:14;;;;;;;0.20;0.20;;;;;;;15.14;100.00;99188.84;4861050;29;20049;-93
2023/08/02 01:33:52;;;;;;;2.55;0.15;;;;;;;14.92;100.00;99164.22;4852868;29;20042;-92
2023/08/02 01:36:18;;;;;;;0.20;0.20;;;;;;;14.91;100.00;99171.03;4840595;29;20517;-94
2023/08/02 01:38:43;;;;;;;0.57;0.45;;;;;;;15.06;100.00;99201.69;4839120;29;20030;-91
2023/08/02 01:41:09;;;;;;;0.32;0.25;;;;;;;14.89;100.00;99188.28;4846365;29;20037;-91
2023/08/02 01:43:35;;;;;;;0.20;0.20;;;;;;;14.92;100.00;99200.50;4831195;29;20463;-93
2023/08/02 01:46:00;;;;;;;0.65;0.55;;;;;;;14.87;100.00;99192.81;4817430;29;20042;-93
2023/08/02 01:48:26;;;;;;;0.47;0.47;;;;;;;14.97;100.00;99205.38;4848810;29;20049;-92
2023/08/02 01:50:52;;;;;;;0.00;0.00;;;;;;;14.82;100.00;99182.34;4817031;29;20095;-93
2023/08/02 01:53:18;;;;;;;0.00;0.00;;;;;;;14.93;100.00;99205.59;4837413;29;20441;-93
2023/08/02 01:55:44;;;;;;;0.47;0.47;;;;;;;14.67;100.00;99168.44;4821478;29;20030;-93
2023/08/02 01:58:10;;;;;;;0.32;0.32;;;;;;;14.96;100.00;99214.25;4842689;29;20038;-92
2023/08/02 02:00:35;;;;;;;0.35;0.35;;;;;;;14.76;100.00;99189.88;4837319;29;20141;-92
2023/08/02 02:03:01;;;;;;;0.13;0.13;;;;;;;14.86;100.00;99210.81;4832110;29;20508;-93
2023/08/02 02:05:26;;;;;;;0.30;0.20;;;;;;;14.77;100.00;99217.28;4818708;29;20114;-93
2023/08/02 02:07:52;;;;;;;0.00;0.00;;;;;;;14.79;100.00;99212.00;4836871;29;20451;-92
2023/08/02 02:10:17;;;;;;;0.32;0.32;;;;;;;14.82;100.00;99227.00;4822355;29;20030;-91
2023/08/02 02:12:43;;;;;;;0.40;0.40;;;;;;;14.82;100.00;99235.38;4829996;29;20455;-92
2023/08/02 02:15:09;;;;;;;0.00;0.00;;;;;;;14.66;100.00;99205.19;4838943;29;20046;-91
2023/08/02 02:17:34;;;;;;;0.10;0.10;;;;;;;14.64;100.00;99202.13;4846967;29;20107;-91
2023/08/02 02:20:00;;;;;;;1.75;0.40;;;;;;;14.72;100.00;99217.97;4823079;29;20211;-92
2023/08/02 02:22:25;;;;;;;0.20;0.20;;;;;;;14.77;100.00;99233.28;4836586;29;20068;-92
2023/08/02 02:24:51;;;;;;;0.65;0.30;;;;;;;14.70;100.00;99222.50;4837781;29;20094;-91
2023/08/02 02:27:16;;;;;;;0.28;0.28;;;;;;;14.67;100.00;99218.69;4823203;29;20034;-92
2023/08/02 02:29:42;;;;;;;0.10;0.10;;;;;;;14.56;100.00;99215.69;4837308;29;20046;-92
2023/08/02 02:32:07;;;;;;;0.22;0.22;;;;;;;14.72;100.00;99247.94;4822105;29;20041;-92
2023/08/02 02:34:33;;;;;;;0.08;0.08;;;;;;;14.69;100.00;99241.28;4828105;29;20066;-91
2023/08/02 02:37:00;;;;;;;0.22;0.22;;;;;;;14.46;100.00;99208.69;4838787;29;20049;-91
2023/08/02 02:39:26;;;;;;;1.00;0.25;;;;;;;14.56;100.00;99226.84;4841727;29;20038;-93
2023/08/02 02:41:51;;;;;;;0.00;0.00;;;;;;;14.55;100.00;99232.94;4835894;29;20030;-91
2023/08/02 02:44:17;;;;;;;0.00;0.00;;;;;;;14.50;100.00;99230.81;4838467;29;20735;-91
2023/08/02 02:46:42;;;;;;;0.28;0.22;;;;;;;14.43;100.00;99221.59;4817382;29;20062;-91
2023/08/02 02:49:08;;;;;;;0.10;0.10;;;;;;;14.55;100.00;99249.69;4841584;29;20038;-92
2023/08/02 02:51:33;;;;;;;0.00;0.00;;;;;;;14.49;100.00;99238.41;4837063;29;20118;-92
2023/08/02 02:53:59;;;;;;;0.35;0.35;;;;;;;14.40;100.00;99239.28;4824012;29;20038;-92
2023/08/02 02:56:24;;;;;;;1.65;0.30;;;;;;;14.31;100.00;99230.25;4832280;29;20042;-93
2023/08/02 02:58:50;;;;;;;1.88;0.38;;;;;;;14.32;100.00;99223.38;4836975;29;20037;-92
2023/08/02 03:01:15;;;;;;;0.10;0.10;;;;;;;14.31;100.00;99207.94;4822833;29;20474;-91
2023/08/02 03:03:44;;;;;;;0.00;0.00;;;;;;;14.40;100.00;99216.97;4826941;29;20029;-93
2023/08/02 03:06:34;;;;;;;1.17;0.57;;;;;;;14.43;100.00;99201.31;4840578;29;20069;-91
2023/08/02 03:09:03;;;;;;;0.10;0.10;;;;;;;14.53;100.00;99219.47;4822329;29;20038;-92
2023/08/02 03:11:29;;;;;;;0.38;0.38;;;;;;;14.63;100.00;99228.50;4845044;29;20557;-92
2023/08/02 03:13:55;;;;;;;0.00;0.00;;;;;;;14.67;100.00;99229.06;4855189;29;20038;-93
2023/08/02 03:16:20;;;;;;;0.65;0.40;;;;;;;14.55;100.00;99216.97;4819589;29;20056;-92
2023/08/02 03:18:48;;;;;;;0.00;0.00;;;;;;;14.72;100.00;99223.56;4810087;29;20110;-93
2023/08/02 03:21:14;;;;;;;0.30;0.20;;;;;;;14.90;100.00;99236.50;4840517;29;20121;-94
2023/08/02 03:23:41;;;;;;;0.20;0.20;;;;;;;14.95;100.00;99241.41;4815471;29;20558;-94
2023/08/02 03:26:07;;;;;;;0.38;0.38;;;;;;;14.95;100.00;99233.03;4824422;29;20137;-93
2023/08/02 03:28:33;;;;;;;0.05;0.05;;;;;;;14.93;100.00;99225.13;4829413;29;20132;-94
2023/08/02 03:30:58;;;;;;;0.10;0.10;;;;;;;15.06;100.00;99232.41;4825249;29;20046;-94
2023/08/02 03:33:23;;;;;;;0.10;0.10;;;;;;;15.06;100.00;99226.84;4831333;29;20467;-94
2023/08/02 03:35:49;;;;;;;0.17;0.17;;;;;;;15.01;100.00;99216.34;4824878;29;20474;-93
2023/08/02 03:38:15;;;;;;;0.00;0.00;;;;;;;15.09;100.00;99229.41;4823022;29;20038;-93
2023/08/02 03:40:40;;;;;;;0.25;0.20;;;;;;;15.05;100.00;99206.50;4856022;29;20041;-93
2023/08/02 03:43:06;;;;;;;0.25;0.25;;;;;;;15.02;100.00;99210.28;4822203;29;20034;-93
2023/08/02 03:45:31;;;;;;;0.30;0.30;;;;;;;15.11;100.00;99229.72;4835377;29;20045;-94
2023/08/02 03:47:57;;;;;;;0.28;0.17;;;;;;;15.18;100.00;99234.09;4834503;29;20045;-94
2023/08/02 03:50:22;;;;;;;0.13;0.13;;;;;;;15.04;100.00;99215.41;4839271;29;20038;-93
2023/08/02 03:52:48;;;;;;;0.75;0.75;;;;;;;15.21;100.00;99227.53;4822404;29;20030;-94
2023/08/02 03:55:14;;;;;;;0.60;0.25;;;;;;;15.20;100.00;99237.19;4828347;29;20040;-93
2023/08/02 03:57:39;;;;;;;0.35;0.35;;;;;;;15.32;100.00;99241.69;4843463;29;20037;-94
2023/08/02 04:00:06;;;;;;;0.30;0.30;;;;;;;15.38;100.00;99239.69;4827244;29;20102;-94
2023/08/02 04:02:41;;;;;;;0.30;0.30;;;;;;;15.39;100.00;99238.44;4821011;29;20161;-94
2023/08/02 04:05:06;;;;;;;0.30;0.30;;;;;;;15.19;100.00;99199.34;4820556;29;20125;-94
2023/08/02 04:07:32;;;;;;;0.30;0.30;;;;;;;15.19;100.00;99202.91;4834410;29;20121;-94
2023/08/02 04:09:58;;;;;;;2.05;0.85;;;;;;;15.14;100.00;99200.03;4833760;29;20056;-94
2023/08/02 04:12:23;;;;;;;0.47;0.47;;;;;;;15.11;100.00;99193.41;4832067;29;20051;-93
2023/08/02 04:14:49;;;;;;;1.13;1.02;;;;;;;15.49;100.00;99251.00;4824912;29;20065;-93
2023/08/02 04:17:14;;;;;;;2.45;0.57;;;;;;;15.47;100.00;99239.56;4822610;29;20035;-93
2023/08/02 04:19:40;;;;;;;0.65;0.38;;;;;;;15.51;100.00;99234.56;4846623;29;20052;-94
2023/08/02 04:22:09;;;;;;;0.63;0.45;;;;;;;15.31;100.00;99187.03;4818658;29;20041;-94
2023/08/02 04:24:35;;;;;;;0.50;0.50;;;;;;;15.37;100.00;99199.03;4830627;29;20463;-94
2023/08/02 04:27:00;;;;;;;0.45;0.35;;;;;;;15.39;100.00;99193.75;4828909;29;20046;-94
2023/08/02 04:29:26;;;;;;;0.32;0.32;;;;;;;15.29;100.00;99169.97;4824498;29;20102;-93
2023/08/02 04:31:52;;;;;;;0.00;0.00;;;;;;;15.51;100.00;99194.66;4841881;29;20054;-94
2023/08/02 04:34:19;;;;;;;0.28;0.28;;;;;;;15.37;100.00;99173.88;4828904;29;20054;-94
2023/08/02 04:36:45;;;;;;;0.15;0.15;;;;;;;15.76;100.00;99210.72;4825664;29;20044;-94
2023/08/02 04:39:11;;;;;;;0.98;0.75;;;;;;;15.72;100.00;99199.75;4824988;29;20057;-93
2023/08/02 04:41:36;;;;;;;0.55;0.28;;;;;;;15.79;100.00;99193.72;4805021;29;20042;-94
2023/08/02 04:44:02;;;;;;;0.20;0.20;;;;;;;15.82;100.00;99192.72;4821072;29;20558;-94
2023/08/02 04:46:28;;;;;;;0.45;0.45;;;;;;;15.80;100.00;99175.69;4808676;29;20055;-94
2023/08/02 04:48:53;;;;;;;0.55;0.55;;;;;;;15.77;100.00;99185.03;4821586;29;20463;-94
2023/08/02 04:51:19;;;;;;;0.43;0.40;;;;;;;15.67;100.00;99163.34;4804606;29;20053;-94
2023/08/02 04:53:47;;;;;;;0.10;0.10;;;;;;;15.75;100.00;99170.78;4839307;29;20048;-94
2023/08/02 04:56:13;;;;;;;1.02;0.90;;;;;;;15.88;100.00;99184.41;4818122;29;20030;-94
2023/08/02 04:58:40;;;;;;;0.13;0.13;;;;;;;15.72;100.00;99157.81;4826110;29;20060;-94
2023/08/02 05:01:06;;;;;;;0.28;0.28;;;;;;;15.77;100.00;99147.94;4827114;29;20030;-93
2023/08/02 05:03:35;;;;;;;1.20;0.43;;;;;;;15.77;100.00;99171.06;4808594;29;20384;-95
2023/08/02 05:06:05;;;;;;;0.10;0.10;;;;;;;15.80;100.00;99186.88;4839381;29;20098;-95
2023/08/02 05:08:33;;;;;;;0.20;0.20;;;;;;;15.83;100.00;99205.44;4823610;29;20487;-94
2023/08/02 05:10:59;;;;;;;0.52;0.47;;;;;;;16.01;100.00;99237.16;4833398;29;20136;-94
2023/08/02 05:13:26;;;;;;;0.60;0.45;;;;;;;15.67;100.00;99180.88;4810629;29;20109;-95
2023/08/02 05:15:53;;;;;;;0.93;0.85;;;;;;;15.82;100.00;99201.09;4810465;29;20029;-95
2023/08/02 05:18:19;;;;;;;0.28;0.28;;;;;;;16.15;100.00;99237.03;4839997;29;20037;-94
2023/08/02 05:20:45;;;;;;;0.20;0.20;;;;;;;16.21;100.00;99235.06;4810663;29;20552;-94
2023/08/02 05:23:11;;;;;;;0.52;0.38;;;;;;;16.19;100.00;99242.41;4837381;29;20144;-94
2023/08/02 05:25:38;;;;;;;0.10;0.10;;;;;;;16.08;100.00;99205.94;4835395;29;20494;-94
2023/08/02 05:28:04;;;;;;;0.20;0.20;;;;;;;16.18;100.00;99219.25;4821904;29;20081;-94
2023/08/02 05:30:31;;;;;;;0.00;0.00;;;;;;;16.09;100.00;99201.88;4810119;29;20086;-94
2023/08/02 05:32:57;;;;;;;0.10;0.10;;;;;;;16.13;100.00;99183.63;4817755;29;20093;-95
2023/08/02 05:35:24;;;;;;;0.17;0.17;;;;;;;16.26;100.00;99202.78;4834441;29;20113;-94
2023/08/02 05:37:50;;;;;;;1.27;0.70;;;;;;;16.56;100.00;99243.25;4820014;29;20126;-94
2023/08/02 05:40:15;;;;;;;0.40;0.35;;;;;;;16.74;100.00;99258.94;4852032;29;20076;-95
2023/08/02 05:42:41;;;;;;;0.60;0.55;;;;;;;16.85;100.00;99264.63;4825039;29;20054;-93
2023/08/02 05:45:09;;;;;;;0.20;0.20;;;;;;;16.97;100.00;99259.88;4822521;29;20403;-92
2023/08/02 05:47:40;;;;;;;0.10;0.10;;;;;;;17.10;100.00;99257.41;4824939;29;20037;-95
2023/08/02 05:50:07;;;;;;;0.10;0.10;;;;;;;17.04;100.00;99253.78;4843612;29;20121;-93
2023/08/02 05:52:32;;;;;;;0.00;0.00;;;;;;;17.13;100.00;99274.00;4836843;29;20037;-93
2023/08/02 05:54:58;;;;;;;0.00;0.00;;;;;;;17.19;100.00;99260.00;4803065;29;20038;-94
2023/08/02 05:57:23;;;;;;;0.22;0.22;;;;;;;17.24;100.00;99250.84;4819977;29;20151;-93
2023/08/02 05:59:49;;;;;;;0.10;0.10;;;;;;;17.15;100.00;99226.59;4837133;29;20112;-94
2023/08/02 06:02:15;;;;;;;0.65;0.43;;;;;;;17.57;100.00;99267.88;4820553;29;20026;-92
2023/08/02 06:04:43;;;;;;;0.35;0.20;;;;;;;17.56;100.00;99266.31;4813430;29;20038;-93
2023/08/02 06:07:09;;;;;;;0.08;0.03;;;;;;;17.59;100.00;99270.91;4803167;29;20070;-94
2023/08/02 06:09:35;;;;;;;0.00;0.00;;;;;;;17.67;100.00;99265.63;4841752;29;20137;-93
2023/08/02 06:12:01;;;;;;;0.05;0.05;;;;;;;17.93;100.00;99251.41;4822382;29;20089;-95
2023/08/02 06:14:26;;;;;;;1.98;0.75;;;;;;;18.26;100.00;99267.56;4818187;29;20117;-95
2023/08/02 06:16:52;;;;;;;0.10;0.10;;;;;;;18.60;100.00;99283.19;4820775;29;20037;-91
2023/08/02 06:19:17;;;;;;;0.65;0.20;;;;;;;18.75;100.00;99266.09;4830001;29;20049;-95
2023/08/02 06:21:43;;;;;;;0.45;0.45;;;;;;;19.01;100.00;99289.03;4807176;29;20030;-94
2023/08/02 06:24:09;;;;;;;0.00;0.00;;;;;;;19.15;100.00;99298.47;4837604;29;20038;-92
2023/08/02 06:26:34;;;;;;;0.00;0.00;;;;;;;19.18;100.00;99281.34;4833248;29;20491;-92
2023/08/02 06:29:00;;;;;;;0.17;0.17;;;;;;;19.51;100.00;99281.28;4820032;29;20523;-93
2023/08/02 06:31:26;;;;;;;0.68;0.68;;;;;;;19.72;100.00;99272.53;4838605;29;20522;-93
2023/08/02 06:33:52;;;;;;;0.50;0.50;;;;;;;19.88;100.00;99285.75;4838837;29;20030;-93
2023/08/02 06:36:17;;;;;;;0.30;0.30;;;;;;;19.83;100.00;99278.88;4830470;29;20507;-92
2023/08/02 06:38:45;;;;;;;0.30;0.30;;;;;;;19.96;100.00;99286.72;4826712;29;20069;-93
2023/08/02 06:41:10;;;;;;;1.60;0.80;;;;;;;20.01;100.00;99278.28;4831856;29;20037;-92
2023/08/02 06:43:36;;;;;;;0.00;0.00;;;;;;;20.14;100.00;99280.47;4812951;29;20296;-93
2023/08/02 06:46:01;;;;;;;0.25;0.25;;;;;;;20.61;100.00;99291.72;4823657;29;20079;-93
2023/08/02 06:48:27;;;;;;;0.20;0.20;;;;;;;20.59;100.00;99274.56;4826071;29;20037;-94
2023/08/02 06:50:53;;;;;;;0.10;0.10;;;;;;;20.58;100.00;99268.19;4841471;29;20444;-92
2023/08/02 06:53:18;;;;;;;0.20;0.20;;;;;;;20.57;100.00;99265.88;4822024;29;20029;-92
2023/08/02 06:55:44;;;;;;;0.10;0.10;;;;;;;20.74;100.00;99264.47;4796418;29;20058;-92
2023/08/02 06:58:10;;;;;;;0.10;0.10;;;;;;;20.77;100.00;99263.41;4845513;29;20128;-92
2023/08/02 07:00:35;;;;;;;0.65;0.63;;;;;;;20.94;100.00;99266.84;4842258;29;20134;-93
2023/08/02 07:03:02;;;;;;;0.10;0.10;;;;;;;21.23;100.00;99276.56;4860089;29;20570;-92
2023/08/02 07:05:29;;;;;;;0.10;0.10;;;;;;;21.35;100.00;99255.41;4818458;29;20034;-92
2023/08/02 07:07:55;;;;;;;0.08;0.03;;;;;;;21.77;100.00;99270.81;4837946;29;20042;-91
2023/08/02 07:10:21;;;;;;;0.10;0.10;;;;;;;21.94;100.00;99269.88;4845865;29;20036;-92
2023/08/02 07:12:50;;;;;;;0.10;0.10;;;;;;;21.87;100.00;99254.28;4825050;29;20498;-92
2023/08/02 07:15:17;;;;;;;3.85;0.55;;;;;;;21.85;100.00;99268.16;4839132;29;20037;-93
2023/08/02 07:17:44;;;;;;;0.30;0.30;;;;;;;21.87;100.00;99268.41;4847598;29;20025;-92
2023/08/02 07:20:11;;;;;;;0.00;0.00;;;;;;;21.81;100.00;99273.34;4836334;29;20566;-92
2023/08/02 07:22:36;;;;;;;1.02;0.45;;;;;;;21.85;100.00;99274.56;4823968;29;20046;-92
2023/08/02 07:25:02;;;;;;;0.40;0.40;;;;;;;21.97;100.00;99275.22;4848170;29;20041;-93
2023/08/02 07:27:28;;;;;;;0.10;0.10;;;;;;;22.04;100.00;99280.25;4821086;29;20038;-92
2023/08/02 07:29:56;;;;;;;0.00;0.00;;;;;;;21.97;100.00;99275.22;4824758;29;20045;-92
2023/08/02 07:32:22;;;;;;;2.63;0.88;;;;;;;21.82;100.00;99280.53;4845945;29;20037;-93
2023/08/02 07:34:47;;;;;;;0.20;0.20;;;;;;;21.90;100.00;99277.84;4836982;29;20060;-93
2023/08/02 07:37:13;;;;;;;0.20;0.20;;;;;;;22.16;100.00;99292.91;4850874;29;20782;-92
2023/08/02 07:39:40;;;;;;;0.10;0.10;;;;;;;22.21;100.00;99272.31;4847078;29;20345;-93
2023/08/02 07:42:07;;;;;;;0.20;0.20;;;;;;;22.74;100.00;99284.63;4832479;29;20061;-92
2023/08/02 07:44:33;;;;;;;0.38;0.22;;;;;;;22.99;100.00;99288.06;4821930;29;20045;-93
2023/08/02 07:46:58;;;;;;;0.10;0.10;;;;;;;23.28;100.00;99291.16;4818736;29;20030;-93
2023/08/02 07:49:24;;;;;;;0.20;0.20;;;;;;;23.02;100.00;99291.84;4833730;29;20506;-94
2023/08/02 07:51:49;;;;;;;0.55;0.40;;;;;;;23.17;100.00;99309.84;4827379;29;20034;-95
2023/08/02 07:54:15;;;;;;;1.35;0.45;;;;;;;23.47;100.00;99294.66;4818364;29;20057;-93
2023/08/02 07:56:40;;;;;;;0.10;0.10;;;;;;;23.11;100.00;99300.69;4850622;29;20052;-92
2023/08/02 07:59:06;;;;;;;0.00;0.00;;;;;;;23.22;100.00;99306.16;4839373;29;20099;-92
2023/08/02 08:01:32;;;;;;;0.08;0.08;;;;;;;23.35;100.00;99296.91;4819931;29;20074;-91
2023/08/02 08:03:57;;;;;;;0.05;0.05;;;;;;;23.39;100.00;99303.00;4820628;29;20045;-92
2023/08/02 08:06:25;;;;;;;0.45;0.45;;;;;;;23.69;100.00;99306.31;4846410;29;20388;-93
2023/08/02 08:08:51;;;;;;;0.10;0.10;;;;;;;23.77;100.00;99306.44;4831599;29;20411;-93
2023/08/02 08:11:17;;;;;;;0.10;0.10;;;;;;;23.79;100.00;99317.19;4832634;29;20030;-92
2023/08/02 08:13:42;;;;;;;0.20;0.20;;;;;;;23.70;100.00;99324.06;4822586;29;20040;-94
2023/08/02 08:16:08;;;;;;;0.30;0.30;;;;;;;24.17;100.00;99320.56;4830534;29;20046;-94
2023/08/02 08:18:34;;;;;;;0.10;0.10;;;;;;;24.35;100.00;99308.28;4848419;29;20535;-93
2023/08/02 08:21:01;;;;;;;0.17;0.17;;;;;;;24.47;100.00;99324.50;4850662;29;20521;-92
2023/08/02 08:23:27;;;;;;;0.15;0.15;;;;;;;24.58;100.00;99306.47;4833975;29;20184;-93
2023/08/02 08:25:53;;;;;;;0.30;0.30;;;;;;;24.69;100.00;99311.88;4833824;29;20495;-93
2023/08/02 08:28:19;;;;;;;0.63;0.63;;;;;;;24.98;100.00;99315.59;4857241;29;20021;-94
2023/08/02 08:30:44;;;;;;;0.20;0.20;;;;;;;24.99;100.00;99303.66;4835576;29;20049;-92
2023/08/02 08:33:10;;;;;;;0.90;0.22;;;;;;;24.69;100.00;99303.38;4821982;29;20396;-92
2023/08/02 08:35:36;;;;;;;0.45;0.45;;;;;;;24.98;100.00;99310.66;4830277;29;20117;-92
2023/08/02 08:38:02;;;;;;;0.10;0.10;;;;;;;25.20;100.00;99283.00;4830855;29;20054;-92
2023/08/02 08:40:27;;;;;;;0.20;0.20;;;;;;;25.71;100.00;99298.16;4839163;29;20454;-91
2023/08/02 08:42:58;;;;;;;0.17;0.17;;;;;;;25.32;99.67;99309.78;4844395;29;20046;-93
2023/08/02 08:45:26;;;;;;;0.17;0.17;;;;;;;25.36;99.16;99307.34;4813353;29;20057;-92
2023/08/02 08:47:53;;;;;;;0.50;0.50;;;;;;;25.29;99.94;99308.06;4850329;29;20030;-93
2023/08/02 08:50:20;;;;;;;0.10;0.10;;;;;;;25.41;100.00;99309.28;4836105;29;20038;-95
2023/08/02 08:52:47;;;;;;;0.47;0.30;;;;;;;25.45;100.00;99304.00;4841387;29;20038;-91
2023/08/02 08:55:15;;;;;;;0.10;0.10;;;;;;;25.06;100.00;99308.66;4848235;29;20042;-95
2023/08/02 08:57:41;;;;;;;0.10;0.10;;;;;;;24.65;100.00;99311.47;4819944;29;20039;-94
2023/08/02 09:00:08;;;;;;;0.13;0.13;;;;;;;24.77;100.00;99312.72;4805662;29;20527;-93
2023/08/02 09:02:34;;;;;;;0.32;0.32;;;;;;;24.89;100.00;99314.00;4830352;29;20211;-92
2023/08/02 09:05:03;;;;;;;0.25;0.25;;;;;;;24.55;98.56;99299.06;4854379;29;20524;-91
2023/08/02 09:07:30;;;;;;;0.25;0.13;;;;;;;24.59;100.00;99302.31;4822581;29;20117;-94
2023/08/02 09:09:56;;;;;;;0.30;0.28;;;;;;;24.63;100.00;99285.72;4832656;29;20072;-91
2023/08/02 09:12:24;;;;;;;0.17;0.17;;;;;;;25.07;99.73;99301.66;4837840;29;20049;-92
2023/08/02 09:15:04;;;;;;;0.52;0.50;;;;;;;24.84;100.00;99295.00;4850959;29;20038;-91
2023/08/02 09:17:50;;;;;;;0.30;0.25;;;;;;;24.74;100.00;99298.88;4841500;29;20165;-91
2023/08/02 09:20:17;;;;;;;0.52;0.52;;;;;;;24.78;100.00;99302.91;4821133;29;20376;-91
2023/08/02 09:22:43;;;;;;;0.10;0.10;;;;;;;24.71;100.00;99286.53;4833353;29;20045;-92
2023/08/02 09:25:28;;;;;;;0.60;0.60;;;;;;;25.23;100.00;99302.56;4819907;29;20046;-92
2023/08/02 09:27:55;;;;;;;0.20;0.20;;;;;;;24.91;93.14;99282.97;4832785;29;20063;-91
2023/08/02 09:30:32;;;;;;;0.08;0.08;;;;;;;25.17;97.08;99286.97;4848508;29;20056;-91
2023/08/02 09:33:03;;;;;;;0.25;0.25;;;;;;;25.22;84.88;99288.91;4828226;29;20042;-92
2023/08/02 09:35:33;;;;;;;0.52;0.50;;;;;;;25.22;88.12;99297.41;4837992;29;20053;-92
2023/08/02 09:37:58;;;;;;;0.65;0.50;;;;;;;25.31;89.57;99280.66;4816094;29;20084;-93
2023/08/02 09:40:38;;;;;;;0.65;0.65;;;;;;;25.21;90.67;99259.00;4818354;29;20053;-93
2023/08/02 09:43:04;;;;;;;31.08;0.95;;;;;;;25.45;93.35;99286.97;4834418;29;20125;-93
2023/08/02 09:45:33;;;;;;;0.70;0.70;;;;;;;25.78;95.85;99291.75;4838521;29;20361;-93
2023/08/02 09:47:59;;;;;;;0.17;0.17;;;;;;;26.03;87.62;99283.53;4846549;29;20167;-92
2023/08/02 09:50:25;;;;;;;0.03;0.03;;;;;;;26.14;82.55;99276.75;4840253;29;20039;-93
2023/08/02 09:52:50;;;;;;;0.00;0.00;;;;;;;26.11;85.95;99289.25;4839774;29;20151;-95
2023/08/02 09:55:17;;;;;;;0.20;0.20;;;;;;;25.45;80.87;99284.13;4841089;29;20052;-93
2023/08/02 09:57:43;;;;;;;0.32;0.32;;;;;;;25.61;87.80;99273.66;4837184;29;20368;-92
2023/08/02 10:00:10;;;;;;;0.30;0.30;;;;;;;25.79;84.73;99267.72;4861734;29;20030;-93
2023/08/02 10:02:41;;;;;;;0.08;0.08;;;;;;;25.95;78.76;99272.13;4839490;29;20478;-92
2023/08/02 10:05:09;;;;;;;0.20;0.20;;;;;;;25.59;82.61;99254.34;4849616;29;20358;-93
2023/08/02 10:08:06;;;;;;;0.73;0.50;;;;;;;25.96;87.79;99255.84;4820653;29;20050;-93
2023/08/02 10:10:38;;;;;;;0.57;0.30;;;;;;;26.27;82.13;99253.88;4824352;29;20080;-94
2023/08/02 10:13:14;;;;;;;0.20;0.17;;;;;;;26.61;76.73;99254.31;4841195;29;20038;-94
2023/08/02 10:15:40;;;;;;;0.35;0.35;;;;;;;26.49;79.61;99218.31;4852199;29;20098;-94
2023/08/02 10:18:06;;;;;;;0.43;0.40;;;;;;;26.53;78.05;99232.91;4850308;29;20049;-94
2023/08/02 10:20:33;;;;;;;0.25;0.25;;;;;;;26.65;78.21;99231.94;4866490;29;20110;-93
2023/08/02 10:23:03;;;;;;;0.20;0.20;;;;;;;26.84;76.81;99223.84;4855070;29;20057;-94
2023/08/02 10:25:37;;;;;;;0.20;0.20;;;;;;;27.26;71.63;99223.41;4852362;29;20033;-94
2023/08/02 10:28:03;;;;;;;0.20;0.20;;;;;;;27.27;66.18;99222.84;4828373;29;20053;-93
2023/08/02 10:30:30;;;;;;;0.30;0.30;;;;;;;26.82;69.42;99212.22;4839530;29;20033;-93
2023/08/02 10:33:13;;;;;;;0.10;0.10;;;;;;;26.53;76.51;99210.16;4854830;29;20467;-93
2023/08/02 10:36:05;;;;;;;0.20;0.20;;;;;;;26.68;66.86;99213.75;4853979;29;20041;-93
2023/08/02 10:38:40;;;;;;;0.10;0.10;;;;;;;26.92;75.33;99215.31;4838145;29;20096;-94
2023/08/02 10:41:07;;;;;;;0.80;0.60;;;;;;;26.95;71.73;99202.78;4841371;29;20558;-94
2023/08/02 10:43:33;;;;;;;0.32;0.32;;;;;;;27.27;68.47;99210.69;4827864;29;20046;-94
2023/08/02 10:46:25;;;;;;;0.10;0.10;;;;;;;27.01;64.38;99211.13;4844931;29;20033;-93
2023/08/02 10:48:51;;;;;;;1.88;0.20;;;;;;;26.92;70.04;99198.22;4853619;29;20045;-93
2023/08/02 10:51:37;;;;;;;0.30;0.30;;;;;;;26.57;72.51;99207.69;4856043;29;20029;-93
2023/08/02 10:54:18;;;;;;;0.10;0.10;;;;;;;26.84;72.54;99191.78;4837781;29;20129;-95
2023/08/02 10:56:54;;;;;;;0.28;0.28;;;;;;;27.47;69.72;99206.88;4820848;29;20507;-95
2023/08/02 10:59:23;;;;;;;0.10;0.10;;;;;;;27.79;62.73;99204.06;4832214;29;20035;-93
2023/08/02 11:02:08;;;;;;;0.10;0.10;;;;;;;27.37;67.49;99203.06;4835515;29;20081;-94
2023/08/02 11:04:53;;;;;;;0.25;0.25;;;;;;;27.56;65.53;99179.88;4823959;29;20037;-93
2023/08/02 11:07:24;;;;;;;0.32;0.32;;;;;;;27.38;67.12;99178.22;4822093;29;20087;-95
2023/08/02 11:09:54;;;;;;;0.20;0.20;;;;;;;27.66;68.45;99178.69;4858264;29;20128;-94
2023/08/02 11:12:21;;;;;;;0.10;0.10;;;;;;;27.67;59.69;99176.59;4832888;29;20284;-93
2023/08/02 11:14:50;;;;;;;0.28;0.28;;;;;;;27.77;65.22;99178.28;4822952;29;20034;-94
2023/08/02 11:17:16;;;;;;;0.30;0.30;;;;;;;27.78;56.61;99168.38;4845048;29;20041;-94
2023/08/02 11:19:47;;;;;;;0.20;0.20;;;;;;;27.44;61.07;99142.47;4816532;29;20070;-94
2023/08/02 11:22:12;;;;;;;0.25;0.25;;;;;;;27.94;58.82;99149.13;4853313;29;20045;-93
2023/08/02 11:24:46;;;;;;;0.20;0.20;;;;;;;28.01;58.13;99145.44;4823085;29;20067;-94
2023/08/02 11:27:26;;;;;;;0.10;0.10;;;;;;;28.16;56.25;99150.31;4821899;29;20046;-94